Bookmark and Share
Track history (hours):
 

Ken Orchid

Last reported at 2014-Apr-21 16:22 UTC. Time now 2014-Apr-24 02:25 UTC.
Position N 26°07' E 055°18'.

Length 169 m; draft 10 m.

Type: Cargo ship. MMSI: 636014693.

NotesDate/timePositionNaut miles runAvg speedWind from/ knotsBaromVisibWave heightAir tempDewpointWater temp
2014-Apr-21 16:22N 26°07' E 055°18'3511.5
2014-Apr-21 13:17N 26°11' E 054°38'911.7
2014-Apr-21 12:30N 26°12' E 054°28'1111.8
2014-Apr-21 11:32N 26°14' E 054°16'1212.0
2014-Apr-21 10:33N 26°16' E 054°03'1312.4
2014-Apr-21 09:30N 26°18' E 053°48'1712.3
2014-Apr-21 08:07N 26°24' E 053°30'712.3
2014-Apr-21 07:33N 26°27' E 053°24'3911.7
2014-Apr-21 04:10N 26°47' E 052°46'711.4
2014-Apr-21 03:32N 26°51' E 052°39'1211.3
2014-Apr-21 02:30N 26°57' E 052°28'8311.9
2014-Apr-20 19:32N 27°31' E 051°03'1311.9
2014-Apr-20 18:29N 27°35' E 050°49'  
2014-Apr-13 04:28N 26°53' E 052°38'1212.3
2014-Apr-13 03:31N 26°48' E 052°50'1612.7
2014-Apr-13 02:16N 26°39' E 053°05'912.9
2014-Apr-13 01:33N 26°34' E 053°13'1212.1
2014-Apr-13 00:33N 26°24' E 053°21'2912.4
2014-Apr-12 22:13N 25°58' E 053°33'2612.2
2014-Apr-12 20:08N 25°34' E 053°44'711.9
2014-Apr-12 19:33N 25°31' E 053°51'1212.1
2014-Apr-12 18:33N 25°26' E 054°03'1212.1
2014-Apr-12 17:33N 25°22' E 054°16'1212.2
2014-Apr-12 16:33N 25°18' E 054°29'1212.1
2014-Apr-12 15:33N 25°13' E 054°41'1212.0
2014-Apr-12 14:33N 25°09' E 054°54'1010.1
2014-Apr-12 13:33N 25°02' E 055°02'4 4.1
2014-Apr-12 12:33N 24°59' E 055°04'0 0.0
2014-Apr-12 11:31N 24°59' E 055°04'0 0.0
2014-Apr-12 10:28N 24°59' E 055°04'0 0.0
2014-Apr-12 09:28N 24°59' E 055°04'0 0.0
2014-Apr-12 05:28N 24°59' E 055°04'0 0.0
2014-Apr-12 04:31N 24°59' E 055°04'0 0.0
2014-Apr-12 03:28N 24°59' E 055°04'0 0.0
2014-Apr-12 02:31N 24°59' E 055°04'0 0.0
2014-Apr-12 01:25N 24°59' E 055°04'0 0.0
2014-Apr-11 22:22N 24°59' E 055°04'0 0.0
2014-Apr-11 21:31N 24°59' E 055°04'0 0.0
2014-Apr-11 20:31N 24°59' E 055°04'0 0.0
2014-Apr-11 19:28N 24°59' E 055°04'0 0.0
2014-Apr-11 18:31N 24°59' E 055°04'0 0.0
2014-Apr-11 17:31N 24°59' E 055°04'0 0.0
2014-Apr-11 16:31N 24°59' E 055°04'  

Dump ship's entire track history

sailing weather and tide predictions

Ken Orchid — A8VZ2 — position and weather